sensor_id;sensor_type;location;lat;lon;timestamp;temperature;humidity
15394;DHT22;7795;47.986;11.868;2022-07-10T00:00:09;21.70;58.20
15394;DHT22;7795;47.986;11.868;2022-07-10T00:02:37;21.70;58.40
15394;DHT22;7795;47.986;11.868;2022-07-10T00:05:04;21.70;58.60
15394;DHT22;7795;47.986;11.868;2022-07-10T00:07:30;21.60;58.40
15394;DHT22;7795;47.986;11.868;2022-07-10T00:09:55;21.60;58.50
15394;DHT22;7795;47.986;11.868;2022-07-10T00:12:22;21.60;58.60
15394;DHT22;7795;47.986;11.868;2022-07-10T00:14:47;21.60;59.30
15394;DHT22;7795;47.986;11.868;2022-07-10T00:17:13;21.60;58.70
15394;DHT22;7795;47.986;11.868;2022-07-10T00:19:40;21.60;58.80
15394;DHT22;7795;47.986;11.868;2022-07-10T00:22:06;21.60;59.00
15394;DHT22;7795;47.986;11.868;2022-07-10T00:24:32;21.50;58.90
15394;DHT22;7795;47.986;11.868;2022-07-10T00:26:58;21.50;59.10
15394;DHT22;7795;47.986;11.868;2022-07-10T00:29:23;21.50;59.20
15394;DHT22;7795;47.986;11.868;2022-07-10T00:31:49;21.50;59.30
15394;DHT22;7795;47.986;11.868;2022-07-10T00:34:15;21.40;59.20
15394;DHT22;7795;47.986;11.868;2022-07-10T00:36:42;21.40;59.40
15394;DHT22;7795;47.986;11.868;2022-07-10T00:39:09;21.40;59.60
15394;DHT22;7795;47.986;11.868;2022-07-10T00:41:35;21.40;59.80
15394;DHT22;7795;47.986;11.868;2022-07-10T00:44:02;21.40;59.90
15394;DHT22;7795;47.986;11.868;2022-07-10T00:46:29;21.30;59.90
15394;DHT22;7795;47.986;11.868;2022-07-10T00:48:55;21.30;60.00
15394;DHT22;7795;47.986;11.868;2022-07-10T00:51:24;21.30;60.30
15394;DHT22;7795;47.986;11.868;2022-07-10T00:53:51;21.30;60.20
15394;DHT22;7795;47.986;11.868;2022-07-10T00:56:19;21.30;60.60
15394;DHT22;7795;47.986;11.868;2022-07-10T00:58:46;21.30;60.60
15394;DHT22;7795;47.986;11.868;2022-07-10T01:01:12;21.20;60.50
15394;DHT22;7795;47.986;11.868;2022-07-10T01:03:37;21.20;60.70
15394;DHT22;7795;47.986;11.868;2022-07-10T01:06:03;21.20;60.80
15394;DHT22;7795;47.986;11.868;2022-07-10T01:08:29;21.20;61.00
15394;DHT22;7795;47.986;11.868;2022-07-10T01:10:57;21.20;61.10
15394;DHT22;7795;47.986;11.868;2022-07-10T01:13:23;21.20;61.50
15394;DHT22;7795;47.986;11.868;2022-07-10T01:15:49;21.20;61.40
15394;DHT22;7795;47.986;11.868;2022-07-10T01:18:15;21.20;61.80
15394;DHT22;7795;47.986;11.868;2022-07-10T01:20:41;21.10;61.90
15394;DHT22;7795;47.986;11.868;2022-07-10T01:23:08;21.10;62.30
15394;DHT22;7795;47.986;11.868;2022-07-10T01:25:34;21.00;62.50
15394;DHT22;7795;47.986;11.868;2022-07-10T01:28:00;21.00;62.50
15394;DHT22;7795;47.986;11.868;2022-07-10T01:30:26;21.00;62.90
15394;DHT22;7795;47.986;11.868;2022-07-10T01:32:52;20.90;63.10
15394;DHT22;7795;47.986;11.868;2022-07-10T01:35:18;20.90;63.40
15394;DHT22;7795;47.986;11.868;2022-07-10T01:37:44;20.80;63.60
15394;DHT22;7795;47.986;11.868;2022-07-10T01:40:12;20.80;63.90
15394;DHT22;7795;47.986;11.868;2022-07-10T01:42:38;20.70;64.20
15394;DHT22;7795;47.986;11.868;2022-07-10T01:45:05;20.70;64.10
15394;DHT22;7795;47.986;11.868;2022-07-10T01:47:31;20.60;64.40
15394;DHT22;7795;47.986;11.868;2022-07-10T01:49:57;20.60;64.40
15394;DHT22;7795;47.986;11.868;2022-07-10T01:52:23;20.60;64.60
15394;DHT22;7795;47.986;11.868;2022-07-10T01:54:49;20.60;65.60
15394;DHT22;7795;47.986;11.868;2022-07-10T01:57:17;20.50;64.90
15394;DHT22;7795;47.986;11.868;2022-07-10T01:59:43;20.60;65.20
15394;DHT22;7795;47.986;11.868;2022-07-10T02:02:09;20.50;65.00
15394;DHT22;7795;47.986;11.868;2022-07-10T02:04:35;20.50;65.10
15394;DHT22;7795;47.986;11.868;2022-07-10T02:07:06;20.50;65.40
15394;DHT22;7795;47.986;11.868;2022-07-10T02:09:32;20.40;65.60
15394;DHT22;7795;47.986;11.868;2022-07-10T02:11:58;20.40;65.70
15394;DHT22;7795;47.986;11.868;2022-07-10T02:14:25;20.40;65.80
15394;DHT22;7795;47.986;11.868;2022-07-10T02:16:50;20.40;65.90
15394;DHT22;7795;47.986;11.868;2022-07-10T02:19:16;20.40;66.00
15394;DHT22;7795;47.986;11.868;2022-07-10T02:21:42;20.40;66.10
15394;DHT22;7795;47.986;11.868;2022-07-10T02:24:08;20.30;67.00
15394;DHT22;7795;47.986;11.868;2022-07-10T02:26:33;20.30;66.60
15394;DHT22;7795;47.986;11.868;2022-07-10T02:28:59;20.30;67.00
15394;DHT22;7795;47.986;11.868;2022-07-10T02:31:26;20.30;67.10
15394;DHT22;7795;47.986;11.868;2022-07-10T02:33:52;20.20;67.20
15394;DHT22;7795;47.986;11.868;2022-07-10T02:36:18;20.20;67.00
15394;DHT22;7795;47.986;11.868;2022-07-10T02:38:43;20.20;67.30
15394;DHT22;7795;47.986;11.868;2022-07-10T02:41:09;20.20;67.50
15394;DHT22;7795;47.986;11.868;2022-07-10T02:43:35;20.20;67.70
15394;DHT22;7795;47.986;11.868;2022-07-10T02:46:01;20.20;67.90
15394;DHT22;7795;47.986;11.868;2022-07-10T02:48:28;20.20;68.10
15394;DHT22;7795;47.986;11.868;2022-07-10T02:50:54;20.10;68.90
15394;DHT22;7795;47.986;11.868;2022-07-10T02:53:20;20.10;68.20
15394;DHT22;7795;47.986;11.868;2022-07-10T02:55:46;20.10;68.40
15394;DHT22;7795;47.986;11.868;2022-07-10T02:58:11;20.10;68.60
15394;DHT22;7795;47.986;11.868;2022-07-10T03:00:37;20.10;68.60
15394;DHT22;7795;47.986;11.868;2022-07-10T03:03:03;20.10;68.70
15394;DHT22;7795;47.986;11.868;2022-07-10T03:05:30;20.10;68.80
15394;DHT22;7795;47.986;11.868;2022-07-10T03:07:56;20.10;69.00
15394;DHT22;7795;47.986;11.868;2022-07-10T03:10:22;20.10;69.00
15394;DHT22;7795;47.986;11.868;2022-07-10T03:12:48;20.10;69.00
15394;DHT22;7795;47.986;11.868;2022-07-10T03:15:14;20.10;69.00
15394;DHT22;7795;47.986;11.868;2022-07-10T03:17:39;20.00;69.00
15394;DHT22;7795;47.986;11.868;2022-07-10T03:20:06;20.00;69.20
15394;DHT22;7795;47.986;11.868;2022-07-10T03:22:33;20.00;69.30
15394;DHT22;7795;47.986;11.868;2022-07-10T03:24:59;20.00;69.50
15394;DHT22;7795;47.986;11.868;2022-07-10T03:27:25;20.00;69.40
15394;DHT22;7795;47.986;11.868;2022-07-10T03:29:51;20.00;69.60
15394;DHT22;7795;47.986;11.868;2022-07-10T03:32:17;20.00;70.50
15394;DHT22;7795;47.986;11.868;2022-07-10T03:34:42;20.00;69.70
15394;DHT22;7795;47.986;11.868;2022-07-10T03:37:08;20.00;69.80
15394;DHT22;7795;47.986;11.868;2022-07-10T03:39:35;20.00;69.90
15394;DHT22;7795;47.986;11.868;2022-07-10T03:42:01;20.00;70.20
15394;DHT22;7795;47.986;11.868;2022-07-10T03:44:26;20.00;70.10
15394;DHT22;7795;47.986;11.868;2022-07-10T03:46:52;19.90;70.10
15394;DHT22;7795;47.986;11.868;2022-07-10T03:49:18;19.90;70.00
15394;DHT22;7795;47.986;11.868;2022-07-10T03:51:44;19.90;70.20
15394;DHT22;7795;47.986;11.868;2022-07-10T03:54:10;19.90;70.30
15394;DHT22;7795;47.986;11.868;2022-07-10T03:56:37;19.90;70.40
15394;DHT22;7795;47.986;11.868;2022-07-10T03:59:21;20.00;70.50
15394;DHT22;7795;47.986;11.868;2022-07-10T04:01:47;20.00;70.30
15394;DHT22;7795;47.986;11.868;2022-07-10T04:04:13;19.90;70.30
15394;DHT22;7795;47.986;11.868;2022-07-10T04:06:38;19.90;70.30
15394;DHT22;7795;47.986;11.868;2022-07-10T04:09:04;20.00;70.50
15394;DHT22;7795;47.986;11.868;2022-07-10T04:11:30;19.90;70.50
15394;DHT22;7795;47.986;11.868;2022-07-10T04:13:57;19.90;70.60
15394;DHT22;7795;47.986;11.868;2022-07-10T04:16:23;19.90;70.80
15394;DHT22;7795;47.986;11.868;2022-07-10T04:18:49;19.80;70.70
15394;DHT22;7795;47.986;11.868;2022-07-10T04:21:15;19.80;70.80
15394;DHT22;7795;47.986;11.868;2022-07-10T04:23:41;19.80;70.90
15394;DHT22;7795;47.986;11.868;2022-07-10T04:26:06;19.80;71.00
15394;DHT22;7795;47.986;11.868;2022-07-10T04:28:32;19.70;71.20
15394;DHT22;7795;47.986;11.868;2022-07-10T04:30:59;19.70;71.50
15394;DHT22;7795;47.986;11.868;2022-07-10T04:33:25;19.70;71.70
15394;DHT22;7795;47.986;11.868;2022-07-10T04:35:51;19.70;71.60
15394;DHT22;7795;47.986;11.868;2022-07-10T04:38:17;19.70;71.70
15394;DHT22;7795;47.986;11.868;2022-07-10T04:40:42;19.70;71.80
15394;DHT22;7795;47.986;11.868;2022-07-10T04:43:08;19.70;71.90
15394;DHT22;7795;47.986;11.868;2022-07-10T04:45:35;19.70;71.90
15394;DHT22;7795;47.986;11.868;2022-07-10T04:48:05;19.70;72.00
15394;DHT22;7795;47.986;11.868;2022-07-10T04:50:30;19.70;72.30
15394;DHT22;7795;47.986;11.868;2022-07-10T04:52:56;19.70;72.20
15394;DHT22;7795;47.986;11.868;2022-07-10T04:55:22;19.70;72.30
15394;DHT22;7795;47.986;11.868;2022-07-10T04:57:48;19.70;72.30
15394;DHT22;7795;47.986;11.868;2022-07-10T05:00:14;19.80;72.20
15394;DHT22;7795;47.986;11.868;2022-07-10T05:02:40;19.80;72.20
15394;DHT22;7795;47.986;11.868;2022-07-10T05:05:08;19.80;72.20
15394;DHT22;7795;47.986;11.868;2022-07-10T05:07:34;19.80;72.30
15394;DHT22;7795;47.986;11.868;2022-07-10T05:10:00;19.80;72.20
15394;DHT22;7795;47.986;11.868;2022-07-10T05:12:26;19.80;72.20
15394;DHT22;7795;47.986;11.868;2022-07-10T05:14:52;19.90;72.40
15394;DHT22;7795;47.986;11.868;2022-07-10T05:17:17;19.90;72.30
15394;DHT22;7795;47.986;11.868;2022-07-10T05:19:43;19.90;72.20
15394;DHT22;7795;47.986;11.868;2022-07-10T05:22:11;19.90;72.30
15394;DHT22;7795;47.986;11.868;2022-07-10T05:24:36;19.90;72.50
15394;DHT22;7795;47.986;11.868;2022-07-10T05:27:03;20.00;72.40
15394;DHT22;7795;47.986;11.868;2022-07-10T05:29:28;20.00;72.50
15394;DHT22;7795;47.986;11.868;2022-07-10T05:31:54;20.00;72.40
15394;DHT22;7795;47.986;11.868;2022-07-10T05:34:20;20.00;72.30
15394;DHT22;7795;47.986;11.868;2022-07-10T05:36:46;20.00;72.30
15394;DHT22;7795;47.986;11.868;2022-07-10T05:39:13;20.00;72.20
15394;DHT22;7795;47.986;11.868;2022-07-10T05:41:39;20.00;72.20
15394;DHT22;7795;47.986;11.868;2022-07-10T05:44:05;20.00;72.20
15394;DHT22;7795;47.986;11.868;2022-07-10T05:46:30;20.00;72.30
15394;DHT22;7795;47.986;11.868;2022-07-10T05:48:57;20.00;72.30
15394;DHT22;7795;47.986;11.868;2022-07-10T05:51:22;20.10;72.40
15394;DHT22;7795;47.986;11.868;2022-07-10T05:53:48;20.10;72.30
15394;DHT22;7795;47.986;11.868;2022-07-10T05:56:15;20.10;72.50
15394;DHT22;7795;47.986;11.868;2022-07-10T05:58:41;20.20;72.60
15394;DHT22;7795;47.986;11.868;2022-07-10T06:01:07;20.20;72.50
15394;DHT22;7795;47.986;11.868;2022-07-10T06:03:32;20.20;72.30
15394;DHT22;7795;47.986;11.868;2022-07-10T06:05:58;20.20;72.30
15394;DHT22;7795;47.986;11.868;2022-07-10T06:08:25;20.30;72.20
15394;DHT22;7795;47.986;11.868;2022-07-10T06:10:51;20.30;72.00
15394;DHT22;7795;47.986;11.868;2022-07-10T06:13:18;20.40;72.10
15394;DHT22;7795;47.986;11.868;2022-07-10T06:15:44;20.40;72.10
15394;DHT22;7795;47.986;11.868;2022-07-10T06:18:10;20.50;71.90
15394;DHT22;7795;47.986;11.868;2022-07-10T06:20:35;20.50;71.70
15394;DHT22;7795;47.986;11.868;2022-07-10T06:23:01;20.50;71.60
15394;DHT22;7795;47.986;11.868;2022-07-10T06:25:27;20.60;71.50
15394;DHT22;7795;47.986;11.868;2022-07-10T06:27:53;20.60;71.20
15394;DHT22;7795;47.986;11.868;2022-07-10T06:30:20;20.60;71.00
15394;DHT22;7795;47.986;11.868;2022-07-10T06:32:46;20.70;70.70
15394;DHT22;7795;47.986;11.868;2022-07-10T06:35:11;20.70;70.60
15394;DHT22;7795;47.986;11.868;2022-07-10T06:37:37;20.70;70.60
15394;DHT22;7795;47.986;11.868;2022-07-10T06:40:04;20.70;70.40
15394;DHT22;7795;47.986;11.868;2022-07-10T06:42:30;20.70;70.30
15394;DHT22;7795;47.986;11.868;2022-07-10T06:44:56;20.70;70.30
15394;DHT22;7795;47.986;11.868;2022-07-10T06:47:23;20.70;70.30
15394;DHT22;7795;47.986;11.868;2022-07-10T06:50:08;20.70;70.10
15394;DHT22;7795;47.986;11.868;2022-07-10T06:52:35;20.70;70.10
15394;DHT22;7795;47.986;11.868;2022-07-10T06:55:02;20.60;70.10
15394;DHT22;7795;47.986;11.868;2022-07-10T06:57:28;20.70;70.30
15394;DHT22;7795;47.986;11.868;2022-07-10T06:59:54;20.70;70.30
15394;DHT22;7795;47.986;11.868;2022-07-10T07:02:20;20.70;70.20
15394;DHT22;7795;47.986;11.868;2022-07-10T07:04:47;20.80;70.20
15394;DHT22;7795;47.986;11.868;2022-07-10T07:07:13;20.80;70.20
15394;DHT22;7795;47.986;11.868;2022-07-10T07:09:39;20.90;70.20
15394;DHT22;7795;47.986;11.868;2022-07-10T07:12:06;20.90;69.90
15394;DHT22;7795;47.986;11.868;2022-07-10T07:14:32;20.90;69.60
15394;DHT22;7795;47.986;11.868;2022-07-10T07:16:58;21.00;69.60
15394;DHT22;7795;47.986;11.868;2022-07-10T07:19:31;21.00;69.50
15394;DHT22;7795;47.986;11.868;2022-07-10T07:21:59;21.10;69.30
15394;DHT22;7795;47.986;11.868;2022-07-10T07:24:43;21.10;69.00
15394;DHT22;7795;47.986;11.868;2022-07-10T07:27:09;21.20;69.00
15394;DHT22;7795;47.986;11.868;2022-07-10T07:29:35;21.20;68.60
15394;DHT22;7795;47.986;11.868;2022-07-10T07:32:01;21.30;68.40
15394;DHT22;7795;47.986;11.868;2022-07-10T07:34:27;21.30;68.10
15394;DHT22;7795;47.986;11.868;2022-07-10T07:36:53;21.30;68.10
15394;DHT22;7795;47.986;11.868;2022-07-10T07:39:20;21.30;67.90
15394;DHT22;7795;47.986;11.868;2022-07-10T07:41:45;21.30;67.80
15394;DHT22;7795;47.986;11.868;2022-07-10T07:44:11;21.30;68.50
15394;DHT22;7795;47.986;11.868;2022-07-10T07:46:37;21.30;67.60
15394;DHT22;7795;47.986;11.868;2022-07-10T07:49:03;21.30;67.60
15394;DHT22;7795;47.986;11.868;2022-07-10T07:51:29;21.30;67.80
15394;DHT22;7795;47.986;11.868;2022-07-10T07:53:55;21.30;67.80
15394;DHT22;7795;47.986;11.868;2022-07-10T07:56:22;21.30;67.80
15394;DHT22;7795;47.986;11.868;2022-07-10T07:58:48;21.30;67.90
15394;DHT22;7795;47.986;11.868;2022-07-10T08:01:13;21.30;67.90
15394;DHT22;7795;47.986;11.868;2022-07-10T08:03:39;21.30;68.00
15394;DHT22;7795;47.986;11.868;2022-07-10T08:06:05;21.30;68.00
15394;DHT22;7795;47.986;11.868;2022-07-10T08:08:31;21.30;67.80
15394;DHT22;7795;47.986;11.868;2022-07-10T08:10:56;21.40;67.80
15394;DHT22;7795;47.986;11.868;2022-07-10T08:13:23;21.40;67.90
15394;DHT22;7795;47.986;11.868;2022-07-10T08:15:49;21.40;67.60
15394;DHT22;7795;47.986;11.868;2022-07-10T08:18:15;21.50;67.40
15394;DHT22;7795;47.986;11.868;2022-07-10T08:20:41;21.50;67.30
15394;DHT22;7795;47.986;11.868;2022-07-10T08:23:07;21.60;67.20
15394;DHT22;7795;47.986;11.868;2022-07-10T08:25:33;21.60;67.00
15394;DHT22;7795;47.986;11.868;2022-07-10T08:28:02;21.60;67.00
15394;DHT22;7795;47.986;11.868;2022-07-10T08:30:30;21.60;66.80
15394;DHT22;7795;47.986;11.868;2022-07-10T08:32:56;21.50;66.80
15394;DHT22;7795;47.986;11.868;2022-07-10T08:35:21;21.60;66.80
15394;DHT22;7795;47.986;11.868;2022-07-10T08:37:47;21.60;66.70
15394;DHT22;7795;47.986;11.868;2022-07-10T08:40:15;21.60;66.50
15394;DHT22;7795;47.986;11.868;2022-07-10T08:42:41;21.60;66.50
15394;DHT22;7795;47.986;11.868;2022-07-10T08:45:10;21.60;66.20
15394;DHT22;7795;47.986;11.868;2022-07-10T08:47:39;21.60;66.20
15394;DHT22;7795;47.986;11.868;2022-07-10T08:50:16;21.70;66.40
15394;DHT22;7795;47.986;11.868;2022-07-10T08:52:43;21.70;66.20
15394;DHT22;7795;47.986;11.868;2022-07-10T08:55:14;21.70;66.00
15394;DHT22;7795;47.986;11.868;2022-07-10T08:57:41;21.80;66.50
15394;DHT22;7795;47.986;11.868;2022-07-10T09:00:09;21.80;65.50
15394;DHT22;7795;47.986;11.868;2022-07-10T09:02:35;21.80;64.90
15394;DHT22;7795;47.986;11.868;2022-07-10T09:05:03;21.90;64.60
15394;DHT22;7795;47.986;11.868;2022-07-10T09:07:34;21.90;63.80
15394;DHT22;7795;47.986;11.868;2022-07-10T09:10:06;21.90;62.80
15394;DHT22;7795;47.986;11.868;2022-07-10T09:12:49;21.90;62.80
15394;DHT22;7795;47.986;11.868;2022-07-10T09:15:16;21.90;61.50
15394;DHT22;7795;47.986;11.868;2022-07-10T09:17:49;21.90;62.40
15394;DHT22;7795;47.986;11.868;2022-07-10T09:20:29;21.90;61.50
15394;DHT22;7795;47.986;11.868;2022-07-10T09:22:56;21.90;60.70
15394;DHT22;7795;47.986;11.868;2022-07-10T09:25:30;21.80;61.10
15394;DHT22;7795;47.986;11.868;2022-07-10T09:27:56;21.90;60.90
15394;DHT22;7795;47.986;11.868;2022-07-10T09:30:32;21.90;61.70
15394;DHT22;7795;47.986;11.868;2022-07-10T09:33:17;21.90;61.00
15394;DHT22;7795;47.986;11.868;2022-07-10T09:36:01;22.00;61.00
15394;DHT22;7795;47.986;11.868;2022-07-10T09:38:51;22.10;60.90
15394;DHT22;7795;47.986;11.868;2022-07-10T09:41:18;22.20;60.20
15394;DHT22;7795;47.986;11.868;2022-07-10T09:43:46;22.20;61.20
15394;DHT22;7795;47.986;11.868;2022-07-10T09:46:12;22.30;61.30
15394;DHT22;7795;47.986;11.868;2022-07-10T09:48:38;22.40;61.20
15394;DHT22;7795;47.986;11.868;2022-07-10T09:51:07;22.50;61.00
15394;DHT22;7795;47.986;11.868;2022-07-10T09:53:37;22.50;60.20
15394;DHT22;7795;47.986;11.868;2022-07-10T09:56:06;22.50;60.30
15394;DHT22;7795;47.986;11.868;2022-07-10T09:58:34;22.60;59.80
15394;DHT22;7795;47.986;11.868;2022-07-10T10:01:02;22.60;60.00
15394;DHT22;7795;47.986;11.868;2022-07-10T10:03:32;22.70;59.70
15394;DHT22;7795;47.986;11.868;2022-07-10T10:06:02;22.70;59.20
15394;DHT22;7795;47.986;11.868;2022-07-10T10:08:35;22.70;59.00
15394;DHT22;7795;47.986;11.868;2022-07-10T10:11:03;22.70;59.10
15394;DHT22;7795;47.986;11.868;2022-07-10T10:13:34;22.70;59.20
15394;DHT22;7795;47.986;11.868;2022-07-10T10:16:01;22.70;59.20
15394;DHT22;7795;47.986;11.868;2022-07-10T10:18:27;22.70;59.10
15394;DHT22;7795;47.986;11.868;2022-07-10T10:20:55;22.70;58.70
15394;DHT22;7795;47.986;11.868;2022-07-10T10:23:22;22.70;58.40
15394;DHT22;7795;47.986;11.868;2022-07-10T10:25:51;22.80;58.30
15394;DHT22;7795;47.986;11.868;2022-07-10T10:28:19;22.80;57.60
15394;DHT22;7795;47.986;11.868;2022-07-10T10:30:53;22.80;57.50
15394;DHT22;7795;47.986;11.868;2022-07-10T10:33:44;22.80;57.50
15394;DHT22;7795;47.986;11.868;2022-07-10T10:36:12;22.80;56.60
15394;DHT22;7795;47.986;11.868;2022-07-10T10:39:01;22.80;57.40
15394;DHT22;7795;47.986;11.868;2022-07-10T10:41:30;22.80;56.70
15394;DHT22;7795;47.986;11.868;2022-07-10T10:44:20;22.80;57.20
15394;DHT22;7795;47.986;11.868;2022-07-10T10:47:01;22.80;56.50
15394;DHT22;7795;47.986;11.868;2022-07-10T10:49:51;22.90;56.50
15394;DHT22;7795;47.986;11.868;2022-07-10T10:52:18;22.90;55.60
15394;DHT22;7795;47.986;11.868;2022-07-10T10:55:04;22.90;56.40
15394;DHT22;7795;47.986;11.868;2022-07-10T10:57:44;23.00;55.60
15394;DHT22;7795;47.986;11.868;2022-07-10T11:00:29;23.00;55.40
15394;DHT22;7795;47.986;11.868;2022-07-10T11:03:18;23.00;55.70
15394;DHT22;7795;47.986;11.868;2022-07-10T11:05:46;23.10;54.60
15394;DHT22;7795;47.986;11.868;2022-07-10T11:08:12;23.00;55.70
15394;DHT22;7795;47.986;11.868;2022-07-10T11:10:40;23.00;56.00
15394;DHT22;7795;47.986;11.868;2022-07-10T11:13:08;23.10;55.60
15394;DHT22;7795;47.986;11.868;2022-07-10T11:15:36;23.10;54.10
15394;DHT22;7795;47.986;11.868;2022-07-10T11:18:09;23.10;54.50
15394;DHT22;7795;47.986;11.868;2022-07-10T11:20:37;23.10;54.20
15394;DHT22;7795;47.986;11.868;2022-07-10T11:23:12;23.10;54.60
15394;DHT22;7795;47.986;11.868;2022-07-10T11:25:48;23.20;54.40
15394;DHT22;7795;47.986;11.868;2022-07-10T11:28:36;23.20;55.00
15394;DHT22;7795;47.986;11.868;2022-07-10T11:31:06;23.30;54.10
15394;DHT22;7795;47.986;11.868;2022-07-10T11:33:39;23.30;54.70
15394;DHT22;7795;47.986;11.868;2022-07-10T11:36:10;23.30;53.90
15394;DHT22;7795;47.986;11.868;2022-07-10T11:38:39;23.30;54.30
15394;DHT22;7795;47.986;11.868;2022-07-10T11:41:12;23.40;55.00
15394;DHT22;7795;47.986;11.868;2022-07-10T11:43:47;23.40;53.90
15394;DHT22;7795;47.986;11.868;2022-07-10T11:46:13;23.50;53.50
15394;DHT22;7795;47.986;11.868;2022-07-10T11:48:39;23.40;53.70
15394;DHT22;7795;47.986;11.868;2022-07-10T11:51:16;23.50;53.80
15394;DHT22;7795;47.986;11.868;2022-07-10T11:53:52;23.50;53.00
15394;DHT22;7795;47.986;11.868;2022-07-10T11:56:19;23.50;52.80
15394;DHT22;7795;47.986;11.868;2022-07-10T11:58:55;23.50;53.20
15394;DHT22;7795;47.986;11.868;2022-07-10T12:01:20;23.60;53.70
15394;DHT22;7795;47.986;11.868;2022-07-10T12:03:54;23.60;53.60
15394;DHT22;7795;47.986;11.868;2022-07-10T12:06:22;23.60;52.90
15394;DHT22;7795;47.986;11.868;2022-07-10T12:08:48;23.70;53.20
15394;DHT22;7795;47.986;11.868;2022-07-10T12:11:15;23.70;53.00
15394;DHT22;7795;47.986;11.868;2022-07-10T12:13:42;23.70;53.50
15394;DHT22;7795;47.986;11.868;2022-07-10T12:16:09;23.80;53.50
15394;DHT22;7795;47.986;11.868;2022-07-10T12:18:35;23.80;53.00
15394;DHT22;7795;47.986;11.868;2022-07-10T12:21:01;23.80;53.00
15394;DHT22;7795;47.986;11.868;2022-07-10T12:23:28;23.90;52.80
15394;DHT22;7795;47.986;11.868;2022-07-10T12:25:55;24.00;52.70
15394;DHT22;7795;47.986;11.868;2022-07-10T12:28:21;24.00;52.70
15394;DHT22;7795;47.986;11.868;2022-07-10T12:30:48;24.10;52.40
15394;DHT22;7795;47.986;11.868;2022-07-10T12:33:19;24.10;52.20
15394;DHT22;7795;47.986;11.868;2022-07-10T12:35:49;24.10;51.50
15394;DHT22;7795;47.986;11.868;2022-07-10T12:38:17;24.20;51.50
15394;DHT22;7795;47.986;11.868;2022-07-10T12:40:43;24.20;51.70
15394;DHT22;7795;47.986;11.868;2022-07-10T12:43:09;24.20;52.50
15394;DHT22;7795;47.986;11.868;2022-07-10T12:45:37;24.30;52.50
15394;DHT22;7795;47.986;11.868;2022-07-10T12:48:04;24.30;51.80
15394;DHT22;7795;47.986;11.868;2022-07-10T12:50:32;24.40;51.70
15394;DHT22;7795;47.986;11.868;2022-07-10T12:53:08;24.40;51.50
15394;DHT22;7795;47.986;11.868;2022-07-10T12:55:38;24.40;50.60
15394;DHT22;7795;47.986;11.868;2022-07-10T12:58:08;24.40;50.30
15394;DHT22;7795;47.986;11.868;2022-07-10T13:00:36;24.50;50.30
15394;DHT22;7795;47.986;11.868;2022-07-10T13:03:10;24.40;50.60
15394;DHT22;7795;47.986;11.868;2022-07-10T13:05:39;24.50;50.80
15394;DHT22;7795;47.986;11.868;2022-07-10T13:08:10;24.50;50.40
15394;DHT22;7795;47.986;11.868;2022-07-10T13:10:47;24.40;50.30
15394;DHT22;7795;47.986;11.868;2022-07-10T13:13:13;24.40;50.60
15394;DHT22;7795;47.986;11.868;2022-07-10T13:15:40;24.50;50.40
15394;DHT22;7795;47.986;11.868;2022-07-10T13:18:13;24.50;50.40
15394;DHT22;7795;47.986;11.868;2022-07-10T13:20:41;24.50;50.40
15394;DHT22;7795;47.986;11.868;2022-07-10T13:23:07;24.50;50.50
15394;DHT22;7795;47.986;11.868;2022-07-10T13:25:33;24.50;50.60
15394;DHT22;7795;47.986;11.868;2022-07-10T13:27:59;24.50;50.40
15394;DHT22;7795;47.986;11.868;2022-07-10T13:30:25;24.60;50.40
15394;DHT22;7795;47.986;11.868;2022-07-10T13:32:51;24.60;50.00
15394;DHT22;7795;47.986;11.868;2022-07-10T13:35:17;24.60;49.90
15394;DHT22;7795;47.986;11.868;2022-07-10T13:37:44;24.60;49.60
15394;DHT22;7795;47.986;11.868;2022-07-10T13:40:10;24.70;49.40
15394;DHT22;7795;47.986;11.868;2022-07-10T13:42:36;24.70;49.50
15394;DHT22;7795;47.986;11.868;2022-07-10T13:45:02;24.70;49.70
15394;DHT22;7795;47.986;11.868;2022-07-10T13:47:28;24.80;49.70
15394;DHT22;7795;47.986;11.868;2022-07-10T13:49:54;24.80;49.50
15394;DHT22;7795;47.986;11.868;2022-07-10T13:52:20;24.80;49.10
15394;DHT22;7795;47.986;11.868;2022-07-10T13:54:47;24.80;48.70
15394;DHT22;7795;47.986;11.868;2022-07-10T13:57:13;24.80;48.60
15394;DHT22;7795;47.986;11.868;2022-07-10T13:59:39;24.70;48.70
15394;DHT22;7795;47.986;11.868;2022-07-10T14:02:04;24.70;48.70
15394;DHT22;7795;47.986;11.868;2022-07-10T14:04:30;24.70;48.50
15394;DHT22;7795;47.986;11.868;2022-07-10T14:06:56;24.60;48.40
15394;DHT22;7795;47.986;11.868;2022-07-10T14:09:22;24.60;48.40
15394;DHT22;7795;47.986;11.868;2022-07-10T14:11:53;24.60;48.40
15394;DHT22;7795;47.986;11.868;2022-07-10T14:14:18;24.50;48.40
15394;DHT22;7795;47.986;11.868;2022-07-10T14:16:44;24.50;48.90
15394;DHT22;7795;47.986;11.868;2022-07-10T14:19:10;24.40;48.30
15394;DHT22;7795;47.986;11.868;2022-07-10T14:21:35;24.40;48.60
15394;DHT22;7795;47.986;11.868;2022-07-10T14:24:04;24.40;48.60
15394;DHT22;7795;47.986;11.868;2022-07-10T14:26:30;24.40;48.30
15394;DHT22;7795;47.986;11.868;2022-07-10T14:28:58;24.40;48.60
15394;DHT22;7795;47.986;11.868;2022-07-10T14:31:24;24.40;48.10
15394;DHT22;7795;47.986;11.868;2022-07-10T14:33:50;24.40;48.20
15394;DHT22;7795;47.986;11.868;2022-07-10T14:36:15;24.40;48.40
15394;DHT22;7795;47.986;11.868;2022-07-10T14:38:41;24.30;48.40
15394;DHT22;7795;47.986;11.868;2022-07-10T14:41:07;24.40;48.40
15394;DHT22;7795;47.986;11.868;2022-07-10T14:43:33;24.40;48.30
15394;DHT22;7795;47.986;11.868;2022-07-10T14:46:00;24.30;47.90
15394;DHT22;7795;47.986;11.868;2022-07-10T14:48:29;24.40;47.60
15394;DHT22;7795;47.986;11.868;2022-07-10T14:50:55;24.40;47.90
15394;DHT22;7795;47.986;11.868;2022-07-10T14:53:23;24.40;48.10
15394;DHT22;7795;47.986;11.868;2022-07-10T14:55:49;24.30;47.90
15394;DHT22;7795;47.986;11.868;2022-07-10T14:58:14;24.40;48.00
15394;DHT22;7795;47.986;11.868;2022-07-10T15:00:40;24.40;47.70
15394;DHT22;7795;47.986;11.868;2022-07-10T15:03:07;24.40;47.70
15394;DHT22;7795;47.986;11.868;2022-07-10T15:05:33;24.40;47.40
15394;DHT22;7795;47.986;11.868;2022-07-10T15:07:59;24.40;47.10
15394;DHT22;7795;47.986;11.868;2022-07-10T15:10:26;24.40;47.00
15394;DHT22;7795;47.986;11.868;2022-07-10T15:12:52;24.40;47.10
15394;DHT22;7795;47.986;11.868;2022-07-10T15:15:17;24.40;47.10
15394;DHT22;7795;47.986;11.868;2022-07-10T15:17:43;24.40;47.10
15394;DHT22;7795;47.986;11.868;2022-07-10T15:20:12;24.40;47.00
15394;DHT22;7795;47.986;11.868;2022-07-10T15:22:38;24.40;46.70
15394;DHT22;7795;47.986;11.868;2022-07-10T15:25:05;24.40;46.70
15394;DHT22;7795;47.986;11.868;2022-07-10T15:27:30;24.40;46.80
15394;DHT22;7795;47.986;11.868;2022-07-10T15:29:56;24.40;46.80
15394;DHT22;7795;47.986;11.868;2022-07-10T15:32:22;24.40;46.60